Haynes, AR (72341)

2:32 AM CDT en Septiembre 01, 2014 (GMT -0500)
marianna,arrkansas | Change Station
CLOSE
Current Station
Estación meteorológica personal
Location: Marianna, AR
Altura: 230 ft
Estaciones meteorológicas cercanas

Alt 230 ft 34.77 °N, 90.77 °W | Updated 9 minutes ago

Despejado
Despejado
76.1 ° F
Sensación térmica 75 ° F
N
1.1
Viento Variable Viento desde Sur

Hoy
Alta -- | Baja -- ° F
--% Posibilidad de precipitaciones
Ayer
Alta -- | Baja -- ° F
Precip. -- pul
6:35 AM 7:29 PM
Creciente, 38% visible
Presión 30.00 pul
Visibilidad 7.0 Millas
Nubes Despejado
Índice de calor 75 ° F
Punto de rocío 75 ° F
Humedad 97%
Precipitaciones 0.00 pul
Espesor de la nieve No disponible.
UV 0 de una escala de 12
Polen 6.40 de una escala de 12
Calidad del aire No disponible.
Flu Activity No disponible.
METAR KUTA 010715Z AUTO 17004KT 7SM CLR 23/22 A3000 RMK AO2 TSNO

More Conditions Fewer Conditions

Presión 30.00 pul
Visibilidad 7.0 Millas
Nubes Despejado
Índice de calor 75 ° F
Punto de rocío 75 ° F
Humedad 97%
Precipitaciones 0.00 pul
Espesor de la nieve No disponible.
UV 0 de una escala de 12
Polen 6.40 de una escala de 12
Calidad del aire No disponible.
Flu Activity No disponible.
METAR KUTA 010715Z AUTO 17004KT 7SM CLR 23/22 A3000 RMK AO2 TSNO

More Conditions Fewer Conditions

10-Day Weather Forecast

Almanac

Astronomía

Sep. 01, 2014 Salida Puesta
Hora real 6:35 AM CDT 7:29 PM CDT
Crepúsculo civil 6:09 AM CDT 7:55 PM CDT
Crepúsculo náutico 5:39 AM CDT 8:25 PM CDT
Crepúsculo astronómico 5:07 AM CDT 8:57 PM CDT
Luna 1:05 PM CDT 11:47 PM CDT
Horas de luz 13h 45m
Horas de luz
12h 53m
Tomorrow will be 2m 5s shorter.
Creciente, 38% of the Moon is Illuminated
Hoy
Creciente
Sep 2
Cuarto creciente
Sep 8
Luna llena
Sep 15
Cuarto menguante
Sep 24
Nueva

Extremos de hoy

Máximos del estado Bajos del estado

Community

WunderPhotos

Upload Photos

1,749,154 ¡fotos cargadas!

Nearby

Grosos de nieve

Estación Profundido Altura
No tenemos constancia de nieve nueva.

Actividad de terremotos

Ciudad Distance Mag. Tiempo y dato
Tiptonville, Tennessee 125 Millas 3.1 11:19 PM CDT
2014-08-31
Magnitud mínima muestra es 2,5.

Temperaturas de aguas costeras

Lugar Temperatura
Sin partes meteorológicos de las estaciones

Estaciones meteorológicas cercanas